Amidon, North Dakota
Current Conditions -  °F | °C
As of 2:56 AM on Friday 31 Oct 2014 (Local Time) from KDIK Reporting Station
Overcast Overcast  
Wind Chill: -9°   Ceiling: 1000
Heat Index: -2°   Visibility: 10mi
Dew Point: -4°   Wind: 22mph
Humidity: 82%   Direction: 150°SSE
Pressure: 30.42"   Gusts: 29mph
Location:  46.48°N, 103.32°W
Report Text: KDIK 310856Z AUTO 15019G25KT 10SM OVC010 M02/M04 A3042 RMK AO2 SLP329 T10171044 58016
Loading
Personal Weather Stations






























Interactive Weather Map
Tropical Storm Tracking
New forecast layout! Learn more

10-Day Weather Forecast

Advertisements
Track Severe Weather on mobile